sensor_id;sensor_type;location;lat;lon;timestamp;P1;durP1;ratioP1;P2;durP2;ratioP2
21804;SDS011;11064;47.102;15.452;2023-04-30T05:02:15;3.72;;;2.45;;
21804;SDS011;11064;47.102;15.452;2023-04-30T05:04:41;2.45;;;2.22;;
21804;SDS011;11064;47.102;15.452;2023-04-30T05:07:07;3.03;;;2.08;;
21804;SDS011;11064;47.102;15.452;2023-04-30T05:09:32;3.05;;;2.22;;
21804;SDS011;11064;47.102;15.452;2023-04-30T05:11:58;3.72;;;2.05;;
21804;SDS011;11064;47.102;15.452;2023-04-30T05:14:24;2.47;;;1.67;;
21804;SDS011;11064;47.102;15.452;2023-04-30T05:16:50;2.10;;;1.90;;
21804;SDS011;11064;47.102;15.452;2023-04-30T05:19:16;2.72;;;2.40;;
21804;SDS011;11064;47.102;15.452;2023-04-30T05:21:41;1.98;;;1.83;;
21804;SDS011;11064;47.102;15.452;2023-04-30T05:24:07;3.88;;;2.30;;
21804;SDS011;11064;47.102;15.452;2023-04-30T05:26:33;3.65;;;2.30;;
21804;SDS011;11064;47.102;15.452;2023-04-30T05:28:58;5.07;;;2.40;;
21804;SDS011;11064;47.102;15.452;2023-04-30T05:31:24;3.45;;;2.30;;
21804;SDS011;11064;47.102;15.452;2023-04-30T05:33:50;5.18;;;2.58;;
21804;SDS011;11064;47.102;15.452;2023-04-30T05:36:16;2.42;;;2.03;;
21804;SDS011;11064;47.102;15.452;2023-04-30T05:38:41;3.40;;;2.25;;
21804;SDS011;11064;47.102;15.452;2023-04-30T05:41:09;3.75;;;2.17;;
21804;SDS011;11064;47.102;15.452;2023-04-30T05:43:36;2.97;;;2.50;;
21804;SDS011;11064;47.102;15.452;2023-04-30T05:46:02;2.80;;;2.30;;
21804;SDS011;11064;47.102;15.452;2023-04-30T05:48:28;3.40;;;2.30;;
21804;SDS011;11064;47.102;15.452;2023-04-30T05:50:54;3.22;;;2.53;;
21804;SDS011;11064;47.102;15.452;2023-04-30T05:53:20;2.60;;;2.20;;
21804;SDS011;11064;47.102;15.452;2023-04-30T05:55:45;4.40;;;2.38;;
21804;SDS011;11064;47.102;15.452;2023-04-30T05:58:11;5.32;;;2.38;;
21804;SDS011;11064;47.102;15.452;2023-04-30T06:00:37;3.20;;;2.40;;
21804;SDS011;11064;47.102;15.452;2023-04-30T06:03:03;3.83;;;2.40;;
21804;SDS011;11064;47.102;15.452;2023-04-30T06:05:29;2.35;;;2.15;;
21804;SDS011;11064;47.102;15.452;2023-04-30T06:07:55;2.50;;;2.15;;
21804;SDS011;11064;47.102;15.452;2023-04-30T06:10:21;2.70;;;2.38;;
21804;SDS011;11064;47.102;15.452;2023-04-30T06:12:46;2.67;;;2.20;;
21804;SDS011;11064;47.102;15.452;2023-04-30T06:15:12;3.08;;;2.47;;
21804;SDS011;11064;47.102;15.452;2023-04-30T06:17:38;2.95;;;2.40;;
21804;SDS011;11064;47.102;15.452;2023-04-30T06:20:04;2.70;;;2.35;;
21804;SDS011;11064;47.102;15.452;2023-04-30T06:22:31;3.15;;;2.20;;
21804;SDS011;11064;47.102;15.452;2023-04-30T06:24:57;3.35;;;2.60;;
21804;SDS011;11064;47.102;15.452;2023-04-30T06:27:24;3.38;;;2.72;;
21804;SDS011;11064;47.102;15.452;2023-04-30T06:29:52;4.00;;;3.00;;
21804;SDS011;11064;47.102;15.452;2023-04-30T06:32:18;3.53;;;2.70;;
21804;SDS011;11064;47.102;15.452;2023-04-30T06:34:44;3.05;;;2.72;;
21804;SDS011;11064;47.102;15.452;2023-04-30T06:37:09;2.78;;;2.40;;
21804;SDS011;11064;47.102;15.452;2023-04-30T06:39:35;4.18;;;2.58;;
21804;SDS011;11064;47.102;15.452;2023-04-30T06:42:01;3.90;;;2.55;;
21804;SDS011;11064;47.102;15.452;2023-04-30T06:44:27;4.43;;;2.60;;
21804;SDS011;11064;47.102;15.452;2023-04-30T06:46:53;3.47;;;2.50;;
21804;SDS011;11064;47.102;15.452;2023-04-30T06:49:19;2.92;;;2.40;;
21804;SDS011;11064;47.102;15.452;2023-04-30T06:51:45;4.13;;;3.20;;
21804;SDS011;11064;47.102;15.452;2023-04-30T06:54:11;6.00;;;3.05;;
21804;SDS011;11064;47.102;15.452;2023-04-30T06:56:36;4.72;;;3.22;;
21804;SDS011;11064;47.102;15.452;2023-04-30T06:59:02;4.05;;;2.58;;
21804;SDS011;11064;47.102;15.452;2023-04-30T07:01:28;5.28;;;2.75;;
21804;SDS011;11064;47.102;15.452;2023-04-30T07:03:54;3.90;;;3.20;;
21804;SDS011;11064;47.102;15.452;2023-04-30T07:06:19;3.40;;;3.03;;
21804;SDS011;11064;47.102;15.452;2023-04-30T07:08:45;3.25;;;2.75;;
21804;SDS011;11064;47.102;15.452;2023-04-30T07:11:11;5.15;;;3.17;;
21804;SDS011;11064;47.102;15.452;2023-04-30T07:13:37;3.63;;;3.10;;
21804;SDS011;11064;47.102;15.452;2023-04-30T07:16:04;3.60;;;3.30;;
21804;SDS011;11064;47.102;15.452;2023-04-30T07:18:30;3.45;;;3.15;;
21804;SDS011;11064;47.102;15.452;2023-04-30T07:20:56;4.30;;;3.20;;
21804;SDS011;11064;47.102;15.452;2023-04-30T07:23:21;4.07;;;3.70;;
21804;SDS011;11064;47.102;15.452;2023-04-30T07:25:47;3.80;;;3.30;;
21804;SDS011;11064;47.102;15.452;2023-04-30T07:28:13;4.00;;;3.10;;
21804;SDS011;11064;47.102;15.452;2023-04-30T07:30:39;3.70;;;3.13;;
21804;SDS011;11064;47.102;15.452;2023-04-30T07:33:05;4.20;;;3.00;;
21804;SDS011;11064;47.102;15.452;2023-04-30T07:35:32;3.50;;;2.63;;
21804;SDS011;11064;47.102;15.452;2023-04-30T07:37:58;3.60;;;2.90;;
21804;SDS011;11064;47.102;15.452;2023-04-30T07:40:24;3.10;;;2.80;;
21804;SDS011;11064;47.102;15.452;2023-04-30T07:42:50;3.58;;;2.53;;
21804;SDS011;11064;47.102;15.452;2023-04-30T07:45:16;3.20;;;2.70;;
21804;SDS011;11064;47.102;15.452;2023-04-30T07:47:42;3.63;;;3.00;;
21804;SDS011;11064;47.102;15.452;2023-04-30T07:50:08;5.10;;;3.40;;
21804;SDS011;11064;47.102;15.452;2023-04-30T07:52:36;3.60;;;3.30;;
21804;SDS011;11064;47.102;15.452;2023-04-30T07:55:02;3.47;;;3.17;;
21804;SDS011;11064;47.102;15.452;2023-04-30T07:57:27;4.85;;;3.33;;
21804;SDS011;11064;47.102;15.452;2023-04-30T07:59:54;3.95;;;3.00;;
21804;SDS011;11064;47.102;15.452;2023-04-30T08:02:20;4.68;;;3.40;;
21804;SDS011;11064;47.102;15.452;2023-04-30T08:04:46;4.20;;;3.40;;
21804;SDS011;11064;47.102;15.452;2023-04-30T08:07:11;3.25;;;2.95;;
21804;SDS011;11064;47.102;15.452;2023-04-30T08:09:39;5.75;;;3.22;;
21804;SDS011;11064;47.102;15.452;2023-04-30T08:12:05;3.30;;;3.00;;
21804;SDS011;11064;47.102;15.452;2023-04-30T08:14:33;3.50;;;3.20;;
21804;SDS011;11064;47.102;15.452;2023-04-30T08:16:59;3.90;;;3.20;;
21804;SDS011;11064;47.102;15.452;2023-04-30T08:19:26;3.40;;;3.10;;
21804;SDS011;11064;47.102;15.452;2023-04-30T08:21:52;3.83;;;3.20;;
21804;SDS011;11064;47.102;15.452;2023-04-30T08:24:18;3.08;;;2.80;;
21804;SDS011;11064;47.102;15.452;2023-04-30T08:26:44;4.22;;;3.20;;
21804;SDS011;11064;47.102;15.452;2023-04-30T08:29:10;3.45;;;2.80;;
21804;SDS011;11064;47.102;15.452;2023-04-30T08:31:35;2.95;;;2.65;;
21804;SDS011;11064;47.102;15.452;2023-04-30T08:34:01;4.28;;;2.70;;
21804;SDS011;11064;47.102;15.452;2023-04-30T08:36:27;3.67;;;2.60;;
21804;SDS011;11064;47.102;15.452;2023-04-30T08:38:53;2.92;;;2.70;;
21804;SDS011;11064;47.102;15.452;2023-04-30T08:41:21;3.72;;;2.97;;
21804;SDS011;11064;47.102;15.452;2023-04-30T08:43:51;3.17;;;2.88;;
21804;SDS011;11064;47.102;15.452;2023-04-30T08:46:18;3.13;;;2.83;;
21804;SDS011;11064;47.102;15.452;2023-04-30T08:48:45;4.07;;;3.35;;
21804;SDS011;11064;47.102;15.452;2023-04-30T08:51:12;3.50;;;2.92;;
21804;SDS011;11064;47.102;15.452;2023-04-30T08:53:38;3.53;;;2.67;;
21804;SDS011;11064;47.102;15.452;2023-04-30T08:56:06;4.50;;;2.80;;
21804;SDS011;11064;47.102;15.452;2023-04-30T08:58:34;3.40;;;3.00;;
21804;SDS011;11064;47.102;15.452;2023-04-30T09:01:01;3.30;;;3.00;;
21804;SDS011;11064;47.102;15.452;2023-04-30T09:03:29;3.72;;;3.13;;
21804;SDS011;11064;47.102;15.452;2023-04-30T09:05:56;3.35;;;2.90;;
21804;SDS011;11064;47.102;15.452;2023-04-30T09:08:44;2.55;;;2.35;;
21804;SDS011;11064;47.102;15.452;2023-04-30T09:13:57;5.95;;;3.40;;
21804;SDS011;11064;47.102;15.452;2023-04-30T09:16:25;3.50;;;3.20;;
21804;SDS011;11064;47.102;15.452;2023-04-30T09:18:52;4.40;;;3.28;;
21804;SDS011;11064;47.102;15.452;2023-04-30T09:21:30;4.25;;;3.33;;
21804;SDS011;11064;47.102;15.452;2023-04-30T09:23:59;3.97;;;3.10;;
21804;SDS011;11064;47.102;15.452;2023-04-30T09:26:35;3.63;;;3.10;;
21804;SDS011;11064;47.102;15.452;2023-04-30T09:29:02;3.33;;;2.90;;
21804;SDS011;11064;47.102;15.452;2023-04-30T09:31:33;4.28;;;3.40;;
21804;SDS011;11064;47.102;15.452;2023-04-30T09:34:00;4.63;;;2.95;;
21804;SDS011;11064;47.102;15.452;2023-04-30T09:36:26;3.00;;;2.80;;
21804;SDS011;11064;47.102;15.452;2023-04-30T09:38:52;3.58;;;2.60;;
21804;SDS011;11064;47.102;15.452;2023-04-30T09:41:25;3.35;;;3.05;;
21804;SDS011;11064;47.102;15.452;2023-04-30T09:43:55;3.83;;;3.03;;
21804;SDS011;11064;47.102;15.452;2023-04-30T09:46:23;3.33;;;3.00;;
21804;SDS011;11064;47.102;15.452;2023-04-30T09:48:56;3.78;;;3.03;;
21804;SDS011;11064;47.102;15.452;2023-04-30T09:51:23;4.28;;;3.80;;
21804;SDS011;11064;47.102;15.452;2023-04-30T09:53:50;5.40;;;3.15;;
21804;SDS011;11064;47.102;15.452;2023-04-30T09:56:19;4.55;;;3.58;;
21804;SDS011;11064;47.102;15.452;2023-04-30T09:58:50;4.93;;;3.50;;
21804;SDS011;11064;47.102;15.452;2023-04-30T10:01:18;3.88;;;3.33;;
21804;SDS011;11064;47.102;15.452;2023-04-30T10:03:45;3.30;;;3.00;;
21804;SDS011;11064;47.102;15.452;2023-04-30T10:06:13;3.20;;;2.90;;
21804;SDS011;11064;47.102;15.452;2023-04-30T10:08:42;3.10;;;2.80;;
21804;SDS011;11064;47.102;15.452;2023-04-30T10:11:11;3.03;;;2.72;;
21804;SDS011;11064;47.102;15.452;2023-04-30T10:13:49;2.92;;;2.50;;
21804;SDS011;11064;47.102;15.452;2023-04-30T10:19:09;3.10;;;2.20;;
21804;SDS011;11064;47.102;15.452;2023-04-30T10:21:39;2.78;;;2.45;;
21804;SDS011;11064;47.102;15.452;2023-04-30T10:24:12;5.17;;;2.40;;
21804;SDS011;11064;47.102;15.452;2023-04-30T10:26:39;2.95;;;2.65;;
21804;SDS011;11064;47.102;15.452;2023-04-30T10:29:05;3.05;;;2.75;;
21804;SDS011;11064;47.102;15.452;2023-04-30T10:31:31;2.78;;;2.58;;
21804;SDS011;11064;47.102;15.452;2023-04-30T10:36:36;3.15;;;2.85;;
21804;SDS011;11064;47.102;15.452;2023-04-30T10:39:09;3.10;;;2.80;;
21804;SDS011;11064;47.102;15.452;2023-04-30T10:41:37;2.65;;;2.45;;
21804;SDS011;11064;47.102;15.452;2023-04-30T10:44:03;3.38;;;3.00;;
21804;SDS011;11064;47.102;15.452;2023-04-30T10:46:33;4.25;;;2.95;;
21804;SDS011;11064;47.102;15.452;2023-04-30T10:49:00;4.90;;;3.22;;
21804;SDS011;11064;47.102;15.452;2023-04-30T10:51:43;4.07;;;3.22;;
21804;SDS011;11064;47.102;15.452;2023-04-30T10:54:15;3.83;;;3.10;;
21804;SDS011;11064;47.102;15.452;2023-04-30T10:56:46;3.58;;;3.20;;
21804;SDS011;11064;47.102;15.452;2023-04-30T10:59:13;4.28;;;2.83;;
21804;SDS011;11064;47.102;15.452;2023-04-30T11:01:58;4.82;;;2.90;;
21804;SDS011;11064;47.102;15.452;2023-04-30T11:04:25;3.22;;;2.90;;
21804;SDS011;11064;47.102;15.452;2023-04-30T11:09:39;5.20;;;3.08;;
21804;SDS011;11064;47.102;15.452;2023-04-30T11:12:11;4.50;;;3.30;;
21804;SDS011;11064;47.102;15.452;2023-04-30T11:14:45;5.68;;;3.60;;
21804;SDS011;11064;47.102;15.452;2023-04-30T11:17:12;3.38;;;3.05;;
21804;SDS011;11064;47.102;15.452;2023-04-30T11:19:47;2.97;;;2.58;;
21804;SDS011;11064;47.102;15.452;2023-04-30T11:22:16;4.20;;;3.10;;
21804;SDS011;11064;47.102;15.452;2023-04-30T11:24:53;3.53;;;3.20;;
21804;SDS011;11064;47.102;15.452;2023-04-30T11:27:30;3.47;;;3.10;;
21804;SDS011;11064;47.102;15.452;2023-04-30T11:29:58;6.13;;;3.50;;
21804;SDS011;11064;47.102;15.452;2023-04-30T11:32:25;3.40;;;3.10;;
21804;SDS011;11064;47.102;15.452;2023-04-30T11:35:01;3.67;;;3.38;;
21804;SDS011;11064;47.102;15.452;2023-04-30T11:37:31;4.07;;;3.45;;
21804;SDS011;11064;47.102;15.452;2023-04-30T11:40:00;3.65;;;2.90;;
21804;SDS011;11064;47.102;15.452;2023-04-30T11:42:28;3.40;;;3.10;;
21804;SDS011;11064;47.102;15.452;2023-04-30T11:45:02;3.30;;;3.00;;
21804;SDS011;11064;47.102;15.452;2023-04-30T11:50:05;4.03;;;3.05;;
21804;SDS011;11064;47.102;15.452;2023-04-30T11:52:32;5.90;;;3.47;;
21804;SDS011;11064;47.102;15.452;2023-04-30T11:54:57;3.70;;;3.30;;
21804;SDS011;11064;47.102;15.452;2023-04-30T11:57:24;3.35;;;3.00;;
21804;SDS011;11064;47.102;15.452;2023-04-30T11:59:50;4.50;;;3.28;;
21804;SDS011;11064;47.102;15.452;2023-04-30T12:02:16;3.33;;;3.03;;
21804;SDS011;11064;47.102;15.452;2023-04-30T12:04:42;6.00;;;3.03;;
21804;SDS011;11064;47.102;15.452;2023-04-30T12:07:08;2.75;;;2.55;;
21804;SDS011;11064;47.102;15.452;2023-04-30T12:09:53;3.83;;;2.90;;
21804;SDS011;11064;47.102;15.452;2023-04-30T12:12:26;4.00;;;3.60;;
21804;SDS011;11064;47.102;15.452;2023-04-30T12:14:53;4.68;;;2.67;;
21804;SDS011;11064;47.102;15.452;2023-04-30T12:17:40;4.10;;;3.00;;
21804;SDS011;11064;47.102;15.452;2023-04-30T12:20:06;3.30;;;2.90;;
21804;SDS011;11064;47.102;15.452;2023-04-30T12:22:33;5.88;;;2.75;;
21804;SDS011;11064;47.102;15.452;2023-04-30T12:24:59;2.97;;;2.67;;
21804;SDS011;11064;47.102;15.452;2023-04-30T12:27:41;4.65;;;2.90;;
21804;SDS011;11064;47.102;15.452;2023-04-30T12:30:09;3.28;;;2.88;;
21804;SDS011;11064;47.102;15.452;2023-04-30T12:32:36;4.20;;;2.70;;
21804;SDS011;11064;47.102;15.452;2023-04-30T12:35:06;3.15;;;2.85;;
21804;SDS011;11064;47.102;15.452;2023-04-30T12:40:06;3.35;;;2.90;;
21804;SDS011;11064;47.102;15.452;2023-04-30T12:42:32;3.22;;;2.92;;
21804;SDS011;11064;47.102;15.452;2023-04-30T12:44:59;3.15;;;2.70;;
21804;SDS011;11064;47.102;15.452;2023-04-30T12:47:26;2.95;;;2.63;;
21804;SDS011;11064;47.102;15.452;2023-04-30T12:49:53;3.55;;;2.60;;
21804;SDS011;11064;47.102;15.452;2023-04-30T12:52:22;3.22;;;2.65;;
21804;SDS011;11064;47.102;15.452;2023-04-30T12:54:50;2.83;;;2.60;;
21804;SDS011;11064;47.102;15.452;2023-04-30T12:57:17;5.15;;;2.70;;
21804;SDS011;11064;47.102;15.452;2023-04-30T13:02:18;3.10;;;2.58;;
21804;SDS011;11064;47.102;15.452;2023-04-30T13:04:48;3.15;;;2.80;;
21804;SDS011;11064;47.102;15.452;2023-04-30T13:07:15;4.15;;;2.53;;
21804;SDS011;11064;47.102;15.452;2023-04-30T13:09:41;3.05;;;2.42;;
21804;SDS011;11064;47.102;15.452;2023-04-30T13:12:07;2.70;;;2.50;;
21804;SDS011;11064;47.102;15.452;2023-04-30T13:14:33;2.88;;;2.67;;
21804;SDS011;11064;47.102;15.452;2023-04-30T13:16:59;4.00;;;2.60;;
21804;SDS011;11064;47.102;15.452;2023-04-30T13:19:29;3.22;;;2.53;;
21804;SDS011;11064;47.102;15.452;2023-04-30T13:21:55;2.67;;;2.30;;
21804;SDS011;11064;47.102;15.452;2023-04-30T13:24:21;2.65;;;2.30;;
21804;SDS011;11064;47.102;15.452;2023-04-30T13:26:47;4.22;;;2.50;;
21804;SDS011;11064;47.102;15.452;2023-04-30T13:29:13;2.60;;;2.40;;
21804;SDS011;11064;47.102;15.452;2023-04-30T13:31:39;3.33;;;2.42;;
21804;SDS011;11064;47.102;15.452;2023-04-30T13:34:07;3.60;;;2.50;;
21804;SDS011;11064;47.102;15.452;2023-04-30T13:36:34;3.38;;;2.40;;
21804;SDS011;11064;47.102;15.452;2023-04-30T13:39:00;2.92;;;2.65;;
21804;SDS011;11064;47.102;15.452;2023-04-30T13:41:26;3.30;;;2.72;;
21804;SDS011;11064;47.102;15.452;2023-04-30T13:43:52;3.45;;;2.90;;
21804;SDS011;11064;47.102;15.452;2023-04-30T13:46:18;3.08;;;2.67;;
21804;SDS011;11064;47.102;15.452;2023-04-30T13:48:44;6.18;;;2.80;;
21804;SDS011;11064;47.102;15.452;2023-04-30T13:51:13;5.30;;;2.95;;
21804;SDS011;11064;47.102;15.452;2023-04-30T13:53:39;6.22;;;2.60;;
21804;SDS011;11064;47.102;15.452;2023-04-30T13:56:05;3.38;;;2.40;;
21804;SDS011;11064;47.102;15.452;2023-04-30T13:58:31;3.17;;;2.53;;
21804;SDS011;11064;47.102;15.452;2023-04-30T14:00:57;4.00;;;2.42;;
21804;SDS011;11064;47.102;15.452;2023-04-30T14:03:23;2.72;;;2.28;;
21804;SDS011;11064;47.102;15.452;2023-04-30T14:05:50;3.45;;;2.67;;
21804;SDS011;11064;47.102;15.452;2023-04-30T14:08:16;2.60;;;2.22;;
21804;SDS011;11064;47.102;15.452;2023-04-30T14:10:41;2.75;;;2.30;;
21804;SDS011;11064;47.102;15.452;2023-04-30T14:13:08;2.90;;;2.50;;
21804;SDS011;11064;47.102;15.452;2023-04-30T14:15:34;2.92;;;2.60;;
21804;SDS011;11064;47.102;15.452;2023-04-30T14:18:00;3.05;;;2.45;;
21804;SDS011;11064;47.102;15.452;2023-04-30T14:20:25;3.20;;;2.53;;
21804;SDS011;11064;47.102;15.452;2023-04-30T14:22:51;2.47;;;2.28;;
21804;SDS011;11064;47.102;15.452;2023-04-30T14:25:17;3.50;;;2.22;;
21804;SDS011;11064;47.102;15.452;2023-04-30T14:27:43;2.50;;;2.20;;
21804;SDS011;11064;47.102;15.452;2023-04-30T14:30:09;2.55;;;2.35;;
21804;SDS011;11064;47.102;15.452;2023-04-30T14:32:35;3.65;;;2.60;;
21804;SDS011;11064;47.102;15.452;2023-04-30T14:35:01;5.13;;;2.35;;
21804;SDS011;11064;47.102;15.452;2023-04-30T14:37:29;3.13;;;2.10;;
21804;SDS011;11064;47.102;15.452;2023-04-30T14:39:54;2.97;;;2.30;;
21804;SDS011;11064;47.102;15.452;2023-04-30T14:42:20;4.38;;;2.17;;
21804;SDS011;11064;47.102;15.452;2023-04-30T14:44:46;2.53;;;1.80;;
21804;SDS011;11064;47.102;15.452;2023-04-30T14:47:12;3.00;;;1.90;;
21804;SDS011;11064;47.102;15.452;2023-04-30T14:49:38;3.25;;;2.15;;
21804;SDS011;11064;47.102;15.452;2023-04-30T14:52:04;2.50;;;2.10;;
21804;SDS011;11064;47.102;15.452;2023-04-30T14:54:30;2.75;;;2.30;;
21804;SDS011;11064;47.102;15.452;2023-04-30T14:56:56;2.55;;;2.03;;
21804;SDS011;11064;47.102;15.452;2023-04-30T14:59:22;2.50;;;2.30;;
21804;SDS011;11064;47.102;15.452;2023-04-30T15:01:48;2.22;;;1.90;;
21804;SDS011;11064;47.102;15.452;2023-04-30T15:04:14;2.25;;;2.03;;
21804;SDS011;11064;47.102;15.452;2023-04-30T15:06:40;2.28;;;1.80;;
21804;SDS011;11064;47.102;15.452;2023-04-30T15:09:06;2.00;;;1.80;;
21804;SDS011;11064;47.102;15.452;2023-04-30T15:11:32;2.72;;;2.00;;
21804;SDS011;11064;47.102;15.452;2023-04-30T15:13:57;2.00;;;1.80;;
21804;SDS011;11064;47.102;15.452;2023-04-30T15:16:23;3.60;;;1.98;;
21804;SDS011;11064;47.102;15.452;2023-04-30T15:18:50;2.35;;;1.90;;
21804;SDS011;11064;47.102;15.452;2023-04-30T15:21:16;1.95;;;1.75;;
21804;SDS011;11064;47.102;15.452;2023-04-30T15:23:42;1.83;;;1.70;;
21804;SDS011;11064;47.102;15.452;2023-04-30T15:26:09;2.47;;;2.28;;
21804;SDS011;11064;47.102;15.452;2023-04-30T15:28:35;3.88;;;2.13;;
21804;SDS011;11064;47.102;15.452;2023-04-30T15:31:01;2.83;;;2.22;;
21804;SDS011;11064;47.102;15.452;2023-04-30T15:33:28;2.55;;;2.10;;
21804;SDS011;11064;47.102;15.452;2023-04-30T15:35:55;2.70;;;2.17;;
21804;SDS011;11064;47.102;15.452;2023-04-30T15:38:22;4.60;;;2.60;;
21804;SDS011;11064;47.102;15.452;2023-04-30T15:40:48;2.95;;;2.65;;
21804;SDS011;11064;47.102;15.452;2023-04-30T15:43:14;3.10;;;2.40;;
21804;SDS011;11064;47.102;15.452;2023-04-30T15:45:40;3.17;;;2.80;;
21804;SDS011;11064;47.102;15.452;2023-04-30T15:48:06;3.30;;;3.00;;
21804;SDS011;11064;47.102;15.452;2023-04-30T15:50:32;4.40;;;3.05;;
21804;SDS011;11064;47.102;15.452;2023-04-30T15:52:57;5.95;;;3.00;;
21804;SDS011;11064;47.102;15.452;2023-04-30T15:55:23;6.45;;;3.28;;
21804;SDS011;11064;47.102;15.452;2023-04-30T15:57:50;6.72;;;3.10;;
21804;SDS011;11064;47.102;15.452;2023-04-30T16:00:16;5.43;;;3.17;;
21804;SDS011;11064;47.102;15.452;2023-04-30T16:02:42;4.32;;;3.50;;
21804;SDS011;11064;47.102;15.452;2023-04-30T16:05:08;3.42;;;2.88;;
21804;SDS011;11064;47.102;15.452;2023-04-30T16:07:34;6.55;;;3.10;;
21804;SDS011;11064;47.102;15.452;2023-04-30T16:10:01;5.25;;;3.30;;
21804;SDS011;11064;47.102;15.452;2023-04-30T16:12:27;7.25;;;3.20;;
21804;SDS011;11064;47.102;15.452;2023-04-30T16:14:53;3.83;;;3.03;;
21804;SDS011;11064;47.102;15.452;2023-04-30T16:17:19;3.63;;;3.30;;
21804;SDS011;11064;47.102;15.452;2023-04-30T16:19:45;4.47;;;3.00;;
21804;SDS011;11064;47.102;15.452;2023-04-30T16:22:11;3.25;;;2.83;;
21804;SDS011;11064;47.102;15.452;2023-04-30T16:24:37;4.35;;;3.00;;
21804;SDS011;11064;47.102;15.452;2023-04-30T16:27:03;5.55;;;3.45;;
21804;SDS011;11064;47.102;15.452;2023-04-30T16:29:29;3.85;;;3.28;;
21804;SDS011;11064;47.102;15.452;2023-04-30T16:31:56;4.05;;;3.15;;
21804;SDS011;11064;47.102;15.452;2023-04-30T16:34:22;3.90;;;3.20;;
21804;SDS011;11064;47.102;15.452;2023-04-30T16:36:48;6.53;;;3.58;;
21804;SDS011;11064;47.102;15.452;2023-04-30T16:39:13;4.18;;;3.35;;
21804;SDS011;11064;47.102;15.452;2023-04-30T16:41:40;3.38;;;2.80;;
21804;SDS011;11064;47.102;15.452;2023-04-30T16:44:06;5.15;;;3.30;;
21804;SDS011;11064;47.102;15.452;2023-04-30T16:46:35;3.70;;;3.30;;
21804;SDS011;11064;47.102;15.452;2023-04-30T16:49:03;4.63;;;3.35;;
21804;SDS011;11064;47.102;15.452;2023-04-30T16:51:28;8.32;;;4.03;;
21804;SDS011;11064;47.102;15.452;2023-04-30T16:53:56;3.58;;;3.10;;
21804;SDS011;11064;47.102;15.452;2023-04-30T16:56:22;4.43;;;3.60;;
21804;SDS011;11064;47.102;15.452;2023-04-30T16:58:47;4.63;;;3.63;;
21804;SDS011;11064;47.102;15.452;2023-04-30T17:01:13;4.45;;;3.40;;
21804;SDS011;11064;47.102;15.452;2023-04-30T17:03:39;4.15;;;3.72;;
21804;SDS011;11064;47.102;15.452;2023-04-30T17:06:05;3.70;;;3.15;;
21804;SDS011;11064;47.102;15.452;2023-04-30T17:08:32;3.88;;;3.50;;
21804;SDS011;11064;47.102;15.452;2023-04-30T17:10:57;3.47;;;3.17;;
21804;SDS011;11064;47.102;15.452;2023-04-30T17:13:23;4.78;;;3.50;;
21804;SDS011;11064;47.102;15.452;2023-04-30T17:15:50;5.20;;;3.60;;
21804;SDS011;11064;47.102;15.452;2023-04-30T17:18:15;6.15;;;3.65;;
21804;SDS011;11064;47.102;15.452;2023-04-30T17:20:41;6.28;;;3.60;;
21804;SDS011;11064;47.102;15.452;2023-04-30T17:23:09;5.03;;;3.97;;
21804;SDS011;11064;47.102;15.452;2023-04-30T17:25:35;5.10;;;3.67;;
21804;SDS011;11064;47.102;15.452;2023-04-30T17:28:02;4.55;;;3.47;;
21804;SDS011;11064;47.102;15.452;2023-04-30T17:30:28;5.45;;;3.63;;
21804;SDS011;11064;47.102;15.452;2023-04-30T17:32:54;4.40;;;3.92;;
21804;SDS011;11064;47.102;15.452;2023-04-30T17:35:20;5.93;;;3.72;;
21804;SDS011;11064;47.102;15.452;2023-04-30T17:37:46;4.72;;;3.75;;
21804;SDS011;11064;47.102;15.452;2023-04-30T17:40:12;4.95;;;3.65;;
21804;SDS011;11064;47.102;15.452;2023-04-30T17:42:38;4.50;;;3.70;;
21804;SDS011;11064;47.102;15.452;2023-04-30T17:45:04;5.55;;;3.70;;
21804;SDS011;11064;47.102;15.452;2023-04-30T17:47:31;7.28;;;3.92;;
21804;SDS011;11064;47.102;15.452;2023-04-30T17:49:57;7.68;;;4.05;;
21804;SDS011;11064;47.102;15.452;2023-04-30T17:52:23;4.93;;;4.10;;
21804;SDS011;11064;47.102;15.452;2023-04-30T17:54:50;5.30;;;4.18;;
21804;SDS011;11064;47.102;15.452;2023-04-30T17:57:16;6.55;;;4.07;;
21804;SDS011;11064;47.102;15.452;2023-04-30T17:59:42;7.05;;;3.88;;
21804;SDS011;11064;47.102;15.452;2023-04-30T18:02:08;5.90;;;4.00;;
21804;SDS011;11064;47.102;15.452;2023-04-30T18:04:34;6.75;;;4.50;;
21804;SDS011;11064;47.102;15.452;2023-04-30T18:07:00;7.63;;;4.32;;
21804;SDS011;11064;47.102;15.452;2023-04-30T18:09:26;5.90;;;3.95;;
21804;SDS011;11064;47.102;15.452;2023-04-30T18:11:52;5.05;;;4.10;;
21804;SDS011;11064;47.102;15.452;2023-04-30T18:14:18;5.47;;;4.30;;
21804;SDS011;11064;47.102;15.452;2023-04-30T18:16:44;4.88;;;4.10;;
21804;SDS011;11064;47.102;15.452;2023-04-30T18:19:10;5.38;;;4.57;;
21804;SDS011;11064;47.102;15.452;2023-04-30T18:21:35;9.52;;;6.43;;
21804;SDS011;11064;47.102;15.452;2023-04-30T18:24:01;5.30;;;4.55;;
21804;SDS011;11064;47.102;15.452;2023-04-30T18:26:27;4.80;;;4.30;;
21804;SDS011;11064;47.102;15.452;2023-04-30T18:28:53;5.32;;;3.97;;
21804;SDS011;11064;47.102;15.452;2023-04-30T18:31:19;5.40;;;3.97;;
21804;SDS011;11064;47.102;15.452;2023-04-30T18:33:45;5.97;;;4.40;;
21804;SDS011;11064;47.102;15.452;2023-04-30T18:36:11;4.97;;;4.28;;
21804;SDS011;11064;47.102;15.452;2023-04-30T18:38:38;4.47;;;4.05;;
21804;SDS011;11064;47.102;15.452;2023-04-30T18:41:04;7.82;;;4.32;;
21804;SDS011;11064;47.102;15.452;2023-04-30T18:43:31;5.90;;;4.40;;
21804;SDS011;11064;47.102;15.452;2023-04-30T18:45:57;4.57;;;3.90;;
21804;SDS011;11064;47.102;15.452;2023-04-30T18:48:23;5.45;;;4.25;;
21804;SDS011;11064;47.102;15.452;2023-04-30T18:50:49;7.93;;;4.60;;
21804;SDS011;11064;47.102;15.452;2023-04-30T18:53:15;6.43;;;3.92;;
21804;SDS011;11064;47.102;15.452;2023-04-30T18:55:45;5.75;;;4.22;;
21804;SDS011;11064;47.102;15.452;2023-04-30T18:58:11;6.00;;;4.53;;
21804;SDS011;11064;47.102;15.452;2023-04-30T19:00:41;5.88;;;4.50;;
21804;SDS011;11064;47.102;15.452;2023-04-30T19:03:07;5.90;;;4.40;;
21804;SDS011;11064;47.102;15.452;2023-04-30T19:05:34;7.93;;;4.38;;
21804;SDS011;11064;47.102;15.452;2023-04-30T19:08:00;6.22;;;4.50;;
21804;SDS011;11064;47.102;15.452;2023-04-30T19:10:26;10.02;;;4.80;;
21804;SDS011;11064;47.102;15.452;2023-04-30T19:12:52;5.43;;;4.68;;
21804;SDS011;11064;47.102;15.452;2023-04-30T19:15:19;6.75;;;4.20;;
21804;SDS011;11064;47.102;15.452;2023-04-30T19:17:46;7.30;;;4.35;;
21804;SDS011;11064;47.102;15.452;2023-04-30T19:20:12;5.82;;;4.30;;
21804;SDS011;11064;47.102;15.452;2023-04-30T19:22:37;6.82;;;4.00;;
21804;SDS011;11064;47.102;15.452;2023-04-30T19:25:04;6.78;;;4.18;;
21804;SDS011;11064;47.102;15.452;2023-04-30T19:27:30;6.38;;;4.20;;
21804;SDS011;11064;47.102;15.452;2023-04-30T19:29:57;5.45;;;4.20;;
21804;SDS011;11064;47.102;15.452;2023-04-30T19:32:22;5.78;;;4.40;;
21804;SDS011;11064;47.102;15.452;2023-04-30T19:34:48;6.75;;;4.25;;
21804;SDS011;11064;47.102;15.452;2023-04-30T19:37:16;5.95;;;4.13;;
21804;SDS011;11064;47.102;15.452;2023-04-30T19:39:42;5.50;;;4.03;;
21804;SDS011;11064;47.102;15.452;2023-04-30T19:42:08;4.88;;;4.38;;
21804;SDS011;11064;47.102;15.452;2023-04-30T19:44:34;6.03;;;5.15;;
21804;SDS011;11064;47.102;15.452;2023-04-30T19:47:00;6.25;;;4.63;;
21804;SDS011;11064;47.102;15.452;2023-04-30T19:49:27;7.43;;;5.15;;
21804;SDS011;11064;47.102;15.452;2023-04-30T19:51:53;6.72;;;4.97;;